createdAt,value
2022-12-24T00:00:53.089Z,65.36
2022-12-24T00:03:38.403Z,65.55
2022-12-24T00:06:23.565Z,65.71
2022-12-24T00:09:08.289Z,64.95
2022-12-24T00:11:53.046Z,64.31
2022-12-24T00:14:37.729Z,64.40
2022-12-24T00:17:22.632Z,65.56
2022-12-24T00:20:07.240Z,64.61
2022-12-24T00:22:52.063Z,64.60
2022-12-24T00:25:36.701Z,64.39
2022-12-24T00:28:21.480Z,64.17
2022-12-24T00:31:06.324Z,64.86
2022-12-24T00:33:50.985Z,65.44
2022-12-24T00:36:35.708Z,64.83
2022-12-24T00:39:20.461Z,66.46
2022-12-24T00:42:05.383Z,66.99
2022-12-24T00:44:50.174Z,67.31
2022-12-24T00:47:34.996Z,67.10
2022-12-24T00:50:19.813Z,66.62
2022-12-24T00:53:04.583Z,67.34
2022-12-24T00:55:49.182Z,67.86
2022-12-24T00:58:35.182Z,67.46
2022-12-24T01:01:20.052Z,67.02
2022-12-24T01:04:05.230Z,66.75
2022-12-24T01:06:50.054Z,66.42
2022-12-24T01:09:34.731Z,67.20
2022-12-24T01:12:19.649Z,66.81
2022-12-24T01:15:04.413Z,67.36
2022-12-24T01:17:49.171Z,68.32
2022-12-24T01:20:33.765Z,67.60
2022-12-24T01:23:18.624Z,67.79
2022-12-24T01:26:03.230Z,68.12
2022-12-24T01:28:48.138Z,68.46
2022-12-24T01:31:33.313Z,67.73
2022-12-24T01:34:18.154Z,68.20
2022-12-24T01:37:03.056Z,67.51
2022-12-24T01:39:47.820Z,67.49
2022-12-24T01:42:32.596Z,67.90
2022-12-24T01:45:17.317Z,67.86
2022-12-24T01:48:02.164Z,67.74
2022-12-24T01:50:46.899Z,68.21
2022-12-24T01:53:31.782Z,68.55
2022-12-24T01:56:16.418Z,69.07
2022-12-24T01:59:01.327Z,68.89
2022-12-24T02:01:46.109Z,69.40
2022-12-24T02:04:31.269Z,70.11
2022-12-24T02:07:16.139Z,68.30
2022-12-24T02:10:00.920Z,69.51
2022-12-24T02:12:45.684Z,68.53
2022-12-24T02:15:30.455Z,67.99
2022-12-24T02:18:15.108Z,68.50
2022-12-24T02:20:59.925Z,69.46
2022-12-24T02:23:44.741Z,68.72
2022-12-24T02:26:29.516Z,69.24
2022-12-24T02:29:14.241Z,68.77
2022-12-24T02:31:59.007Z,67.65
2022-12-24T02:34:43.661Z,68.72
2022-12-24T02:37:28.553Z,68.54
2022-12-24T02:40:16.564Z,68.21
2022-12-24T02:43:02.071Z,68.35
2022-12-24T02:45:46.840Z,68.80
2022-12-24T02:48:31.642Z,67.79
2022-12-24T02:51:16.521Z,67.23
2022-12-24T02:54:01.187Z,68.52
2022-12-24T02:56:46.479Z,68.40
2022-12-24T02:59:31.058Z,68.42
2022-12-24T03:02:15.977Z,68.12
2022-12-24T03:05:01.191Z,67.76
2022-12-24T03:07:46.054Z,68.02
2022-12-24T03:10:30.749Z,67.79
2022-12-24T03:13:15.600Z,68.39
2022-12-24T03:16:00.471Z,69.43
2022-12-24T03:18:45.160Z,68.71
2022-12-24T03:21:29.964Z,68.40
2022-12-24T03:24:14.702Z,68.95
2022-12-24T03:26:59.497Z,68.31
2022-12-24T03:29:44.154Z,69.14
2022-12-24T03:32:28.933Z,68.96
2022-12-24T03:35:13.644Z,68.03
2022-12-24T03:37:58.377Z,68.40
2022-12-24T03:40:43.078Z,68.08
2022-12-24T03:43:28.037Z,67.83
2022-12-24T03:46:12.814Z,67.30
2022-12-24T03:48:57.547Z,68.07
2022-12-24T03:51:42.445Z,67.49
2022-12-24T03:54:27.391Z,66.78
2022-12-24T03:57:12.344Z,67.23
2022-12-24T03:59:57.061Z,67.53
2022-12-24T04:02:41.975Z,67.38
2022-12-24T04:05:27.133Z,67.50
2022-12-24T04:08:11.949Z,67.60
2022-12-24T04:10:56.755Z,68.85
2022-12-24T04:13:41.418Z,68.52
2022-12-24T04:16:26.274Z,68.23
2022-12-24T04:19:10.836Z,68.00
2022-12-24T04:21:55.692Z,68.79
2022-12-24T04:24:40.292Z,69.48
2022-12-24T04:27:30.130Z,69.99
2022-12-24T04:30:15.322Z,67.84
2022-12-24T04:33:00.113Z,68.82
2022-12-24T04:35:44.816Z,68.48
2022-12-24T04:38:29.525Z,68.57
2022-12-24T04:41:22.360Z,69.52
2022-12-24T04:44:08.204Z,68.58
2022-12-24T04:46:52.883Z,67.75
2022-12-24T04:49:37.666Z,67.82
2022-12-24T04:52:22.496Z,67.93
2022-12-24T04:55:07.298Z,67.65
2022-12-24T04:57:53.297Z,67.69
2022-12-24T05:00:38.175Z,67.68
2022-12-24T05:03:23.068Z,67.00
2022-12-24T05:06:07.844Z,67.36
2022-12-24T05:08:52.557Z,66.55
2022-12-24T05:11:37.395Z,66.90
2022-12-24T05:14:22.064Z,68.10
2022-12-24T05:17:06.768Z,67.99
2022-12-24T05:19:51.396Z,67.98
2022-12-24T05:22:36.068Z,66.91
2022-12-24T05:25:20.753Z,66.89
2022-12-24T05:28:05.584Z,66.18
2022-12-24T05:30:50.324Z,65.94
2022-12-24T05:33:35.023Z,65.82
2022-12-24T05:36:19.745Z,65.83
2022-12-24T05:39:07.229Z,66.17
2022-12-24T05:41:54.818Z,66.51
2022-12-24T05:44:39.539Z,66.11
2022-12-24T05:47:24.229Z,66.42
2022-12-24T05:50:08.871Z,66.84
2022-12-24T05:52:53.770Z,67.35
2022-12-24T05:55:38.493Z,68.29
2022-12-24T05:58:23.340Z,67.64
2022-12-24T06:01:08.204Z,67.43
2022-12-24T06:03:52.942Z,67.10
2022-12-24T06:06:37.761Z,67.68
2022-12-24T06:09:22.570Z,67.46
2022-12-24T06:12:07.371Z,67.35
2022-12-24T06:14:51.954Z,67.71
2022-12-24T06:17:36.753Z,67.45
2022-12-24T06:20:21.395Z,66.99
2022-12-24T06:23:06.035Z,66.92
2022-12-24T06:25:50.907Z,66.67
2022-12-24T06:28:35.638Z,66.77
2022-12-24T06:31:20.503Z,67.16
2022-12-24T06:34:05.757Z,68.75
2022-12-24T06:36:50.637Z,68.52
2022-12-24T06:39:35.207Z,68.09
2022-12-24T06:42:20.043Z,67.48
2022-12-24T06:45:08.349Z,67.03
2022-12-24T06:47:53.827Z,67.41
2022-12-24T06:50:38.705Z,67.38
2022-12-24T06:53:23.416Z,68.72
2022-12-24T06:56:08.216Z,68.70
2022-12-24T06:58:52.899Z,68.67
2022-12-24T07:01:37.865Z,69.12
2022-12-24T07:04:23.082Z,68.38
2022-12-24T07:07:07.657Z,68.49
2022-12-24T07:09:52.643Z,68.68
2022-12-24T07:12:37.498Z,67.87
2022-12-24T07:15:22.265Z,67.61
2022-12-24T07:18:06.968Z,67.98
2022-12-24T07:20:51.790Z,68.51
2022-12-24T07:23:36.588Z,69.33
2022-12-24T07:26:21.433Z,69.10
2022-12-24T07:29:06.134Z,68.40
2022-12-24T07:31:51.013Z,68.12
2022-12-24T07:34:35.643Z,68.36
2022-12-24T07:37:20.324Z,67.97
2022-12-24T07:40:05.124Z,67.44
2022-12-24T07:42:49.855Z,67.01
2022-12-24T07:45:34.519Z,67.50
2022-12-24T07:48:19.184Z,66.92
2022-12-24T07:51:04.034Z,67.27
2022-12-24T07:53:48.689Z,67.14
2022-12-24T07:56:33.486Z,67.73
2022-12-24T07:59:18.209Z,68.42
2022-12-24T08:02:03.139Z,68.48
2022-12-24T08:04:48.355Z,68.03
2022-12-24T08:07:33.304Z,67.64
2022-12-24T08:10:18.514Z,67.21
2022-12-24T08:13:03.218Z,68.98
2022-12-24T08:15:48.198Z,69.01
2022-12-24T08:18:32.839Z,69.34
2022-12-24T08:21:17.717Z,68.83
2022-12-24T08:24:02.389Z,69.55
2022-12-24T08:26:47.188Z,69.99
2022-12-24T08:29:31.958Z,69.81
2022-12-24T08:32:16.761Z,70.05
2022-12-24T08:35:01.545Z,70.13
2022-12-24T08:37:46.188Z,70.76
2022-12-24T08:40:31.157Z,70.45
2022-12-24T08:43:15.792Z,69.80
2022-12-24T08:46:00.682Z,69.35
2022-12-24T08:48:45.295Z,68.97
2022-12-24T08:51:30.044Z,70.28
2022-12-24T08:54:14.846Z,70.09
2022-12-24T08:56:59.676Z,69.68
2022-12-24T08:59:44.399Z,69.24
2022-12-24T09:02:29.024Z,68.32
2022-12-24T09:05:14.239Z,69.23
2022-12-24T09:07:58.966Z,69.41
2022-12-24T09:10:43.912Z,69.68
2022-12-24T09:13:28.585Z,70.48
2022-12-24T09:16:13.322Z,69.83
2022-12-24T09:18:57.970Z,69.37
2022-12-24T09:21:42.725Z,69.37
2022-12-24T09:24:27.433Z,68.35
2022-12-24T09:27:12.119Z,68.28
2022-12-24T09:29:56.800Z,67.55
2022-12-24T09:32:41.551Z,67.30
2022-12-24T09:35:26.309Z,66.96
2022-12-24T09:38:11.032Z,67.39
2022-12-24T09:40:55.808Z,66.11
2022-12-24T09:43:40.523Z,66.75
2022-12-24T09:46:27.726Z,68.16
2022-12-24T09:49:12.480Z,68.30
2022-12-24T09:51:57.341Z,68.49
2022-12-24T09:54:47.695Z,69.48
2022-12-24T09:57:34.445Z,69.37
2022-12-24T10:00:19.096Z,68.95
2022-12-24T10:03:03.811Z,70.48
2022-12-24T10:05:48.446Z,70.82
2022-12-24T10:08:33.376Z,71.73
2022-12-24T10:11:18.084Z,73.07
2022-12-24T10:14:02.914Z,73.70
2022-12-24T10:16:47.537Z,74.42
2022-12-24T10:19:32.485Z,73.94
2022-12-24T10:22:17.216Z,73.21
2022-12-24T10:25:01.902Z,72.78
2022-12-24T10:27:46.672Z,72.49
2022-12-24T10:30:31.443Z,73.00
2022-12-24T10:33:16.076Z,71.31
2022-12-24T10:36:01.566Z,71.10
2022-12-24T10:38:48.041Z,70.42
2022-12-24T10:41:32.817Z,70.58
2022-12-24T10:44:17.857Z,72.82
2022-12-24T10:47:02.731Z,71.61
2022-12-24T10:49:47.464Z,71.69
2022-12-24T10:52:32.374Z,72.04
2022-12-24T10:55:17.111Z,71.28
2022-12-24T10:58:01.979Z,70.34
2022-12-24T11:00:46.726Z,69.90
2022-12-24T11:03:31.607Z,69.04
2022-12-24T11:06:16.810Z,67.83
2022-12-24T11:09:01.590Z,67.94
2022-12-24T11:11:46.226Z,68.03
2022-12-24T11:14:30.972Z,71.00
2022-12-24T11:17:15.847Z,71.34
2022-12-24T11:20:00.534Z,70.34
2022-12-24T11:22:45.387Z,70.69
2022-12-24T11:25:30.148Z,70.02
2022-12-24T11:28:15.038Z,69.50
2022-12-24T11:30:59.712Z,69.98
2022-12-24T11:33:44.415Z,69.96
2022-12-24T11:36:29.069Z,70.47
2022-12-24T11:39:13.979Z,69.85
2022-12-24T11:41:59.011Z,69.73
2022-12-24T11:44:43.706Z,70.07
2022-12-24T11:47:28.508Z,71.46
2022-12-24T11:50:18.526Z,70.66
2022-12-24T11:53:04.143Z,69.63
2022-12-24T11:55:49.004Z,68.83
2022-12-24T11:58:33.733Z,68.67
2022-12-24T12:01:18.598Z,68.26
2022-12-24T12:04:03.229Z,68.00
2022-12-24T12:06:48.115Z,67.27
2022-12-24T12:09:32.821Z,65.80
2022-12-24T12:12:17.716Z,66.45
2022-12-24T12:15:02.370Z,67.46
2022-12-24T12:17:47.145Z,67.24
2022-12-24T12:20:32.019Z,66.51
2022-12-24T12:23:16.791Z,68.29
2022-12-24T12:26:01.595Z,69.71
2022-12-24T12:28:46.311Z,69.35
2022-12-24T12:31:31.660Z,67.54
2022-12-24T12:34:16.723Z,66.20
2022-12-24T12:37:01.483Z,66.29
2022-12-24T12:39:46.149Z,65.30
2022-12-24T12:42:31.044Z,66.32
2022-12-24T12:45:15.971Z,65.69
2022-12-24T12:48:00.727Z,67.70
2022-12-24T12:50:45.624Z,68.35
2022-12-24T12:53:30.351Z,67.66
2022-12-24T12:56:15.201Z,66.66
2022-12-24T12:59:00.002Z,66.33
2022-12-24T13:01:45.171Z,66.54
2022-12-24T13:04:30.169Z,66.82
2022-12-24T13:07:15.098Z,67.08
2022-12-24T13:10:00.173Z,67.05
2022-12-24T13:12:44.852Z,66.68
2022-12-24T13:15:29.677Z,66.31
2022-12-24T13:18:14.469Z,66.45
2022-12-24T13:20:59.279Z,68.45
2022-12-24T13:23:43.912Z,69.81
2022-12-24T13:26:28.578Z,71.41
2022-12-24T13:29:13.197Z,72.05
2022-12-24T13:31:58.042Z,73.10
2022-12-24T13:34:42.942Z,72.94
2022-12-24T13:37:27.784Z,72.56
2022-12-24T13:40:12.518Z,71.48
2022-12-24T13:42:57.410Z,71.69
2022-12-24T13:45:42.411Z,71.30
2022-12-24T13:48:27.147Z,70.97
2022-12-24T13:51:11.992Z,70.96
2022-12-24T13:53:56.650Z,70.64
2022-12-24T13:56:41.305Z,70.38
2022-12-24T13:59:25.994Z,71.24
2022-12-24T14:02:10.957Z,71.68
2022-12-24T14:04:56.097Z,71.02
2022-12-24T14:07:40.895Z,71.15
2022-12-24T14:10:25.728Z,70.32
2022-12-24T14:13:10.593Z,69.67
2022-12-24T14:15:55.470Z,70.80
2022-12-24T14:18:40.617Z,70.83
2022-12-24T14:21:25.494Z,71.36
2022-12-24T14:24:10.155Z,70.73
2022-12-24T14:26:54.896Z,70.42
2022-12-24T14:29:39.609Z,70.57
2022-12-24T14:32:24.596Z,70.74
2022-12-24T14:35:09.313Z,71.25
2022-12-24T14:37:54.074Z,70.50
2022-12-24T14:40:39.494Z,70.44
2022-12-24T14:43:24.254Z,70.29
2022-12-24T14:46:09.210Z,70.79
2022-12-24T14:48:54.407Z,70.88
2022-12-24T14:51:39.280Z,70.95
2022-12-24T14:54:23.926Z,71.50
2022-12-24T14:57:08.675Z,70.84
2022-12-24T14:59:53.354Z,71.25
2022-12-24T15:02:38.311Z,70.91
2022-12-24T15:05:23.523Z,70.55
2022-12-24T15:08:08.273Z,70.61
2022-12-24T15:10:55.369Z,71.82
2022-12-24T15:13:41.850Z,70.14
2022-12-24T15:16:26.703Z,70.70
2022-12-24T15:19:11.453Z,72.00
2022-12-24T15:21:56.141Z,71.18
2022-12-24T15:24:40.958Z,71.91
2022-12-24T15:27:25.765Z,72.88
2022-12-24T15:30:10.671Z,73.66
2022-12-24T15:32:55.473Z,72.89
2022-12-24T15:35:40.400Z,72.61
2022-12-24T15:38:25.171Z,70.64
2022-12-24T15:41:10.037Z,71.60
2022-12-24T15:43:54.680Z,71.34
2022-12-24T15:46:39.518Z,72.38
2022-12-24T15:49:24.756Z,71.67
2022-12-24T15:52:09.647Z,71.69
2022-12-24T15:54:58.152Z,73.33
2022-12-24T15:57:43.638Z,73.25
2022-12-24T16:00:28.452Z,72.83
2022-12-24T16:03:13.345Z,72.39
2022-12-24T16:05:58.482Z,71.25
2022-12-24T16:08:43.293Z,71.69
2022-12-24T16:11:28.481Z,73.36
2022-12-24T16:14:13.396Z,72.75
2022-12-24T16:16:58.088Z,71.62
2022-12-24T16:19:43.037Z,70.33
2022-12-24T16:22:27.828Z,70.22
2022-12-24T16:25:12.489Z,69.68
2022-12-24T16:28:00.548Z,69.87
2022-12-24T16:30:46.211Z,70.33
2022-12-24T16:33:30.883Z,69.84
2022-12-24T16:36:15.625Z,70.25
2022-12-24T16:39:00.512Z,70.27
2022-12-24T16:41:45.467Z,71.80
2022-12-24T16:44:30.171Z,70.40
2022-12-24T16:47:14.961Z,70.93
2022-12-24T16:49:59.621Z,70.47
2022-12-24T16:52:44.392Z,70.21
2022-12-24T16:55:29.050Z,70.30
2022-12-24T16:58:13.887Z,70.69
2022-12-24T17:00:58.584Z,71.26
2022-12-24T17:03:43.605Z,70.73
2022-12-24T17:06:28.897Z,71.48
2022-12-24T17:09:13.771Z,71.38
2022-12-24T17:11:58.546Z,70.84
2022-12-24T17:14:43.294Z,71.54
2022-12-24T17:17:28.065Z,71.13
2022-12-24T17:20:12.767Z,70.34
2022-12-24T17:22:57.651Z,71.11
2022-12-24T17:25:42.328Z,70.39
2022-12-24T17:28:27.052Z,70.96
2022-12-24T17:31:11.891Z,70.04
2022-12-24T17:33:56.659Z,70.44
2022-12-24T17:36:41.415Z,70.47
2022-12-24T17:39:28.094Z,70.19
2022-12-24T17:42:12.998Z,69.69
2022-12-24T17:44:57.827Z,70.22
2022-12-24T17:47:42.523Z,70.45
2022-12-24T17:50:27.166Z,70.25
2022-12-24T17:53:11.977Z,69.51
2022-12-24T17:55:56.709Z,69.04
2022-12-24T17:58:41.427Z,69.62
2022-12-24T18:01:26.405Z,70.46
2022-12-24T18:04:11.628Z,70.66
2022-12-24T18:07:02.035Z,69.87
2022-12-24T18:09:47.538Z,70.06
2022-12-24T18:12:32.261Z,70.66
2022-12-24T18:15:17.102Z,70.09
2022-12-24T18:18:01.609Z,70.33
2022-12-24T18:20:47.185Z,70.81
2022-12-24T18:23:32.369Z,70.03
2022-12-24T18:26:17.111Z,69.67
2022-12-24T18:29:01.892Z,69.94
2022-12-24T18:31:46.753Z,69.44
2022-12-24T18:34:32.078Z,69.95
2022-12-24T18:37:16.816Z,69.89
2022-12-24T18:40:01.608Z,69.75
2022-12-24T18:42:46.241Z,69.79
2022-12-24T18:45:30.990Z,70.26
2022-12-24T18:48:15.764Z,69.92
2022-12-24T18:51:00.610Z,70.17
2022-12-24T18:53:45.308Z,69.84
2022-12-24T18:56:30.142Z,69.86
2022-12-24T18:59:15.131Z,69.20
2022-12-24T19:01:59.898Z,69.37
2022-12-24T19:04:44.969Z,69.58
2022-12-24T19:07:29.674Z,69.59
2022-12-24T19:10:14.466Z,68.98
2022-12-24T19:12:59.057Z,69.60
2022-12-24T19:15:43.838Z,69.81
2022-12-24T19:18:28.715Z,69.13
2022-12-24T19:21:13.404Z,69.15
2022-12-24T19:23:58.154Z,70.08
2022-12-24T19:26:42.936Z,70.90
2022-12-24T19:29:27.792Z,70.49
2022-12-24T19:32:12.597Z,71.01
2022-12-24T19:34:57.415Z,71.02
2022-12-24T19:37:42.097Z,70.64
2022-12-24T19:40:26.905Z,72.29
2022-12-24T19:43:11.643Z,72.55
2022-12-24T19:45:56.530Z,71.80
2022-12-24T19:48:41.725Z,72.20
2022-12-24T19:51:26.501Z,71.16
2022-12-24T19:54:18.439Z,71.27
2022-12-24T19:57:04.173Z,72.25
2022-12-24T19:59:48.921Z,71.58
2022-12-24T20:02:33.862Z,72.00
2022-12-24T20:05:18.930Z,71.15
2022-12-24T20:08:03.738Z,71.31
2022-12-24T20:10:48.275Z,72.15
2022-12-24T20:13:33.085Z,71.84
2022-12-24T20:16:17.835Z,71.94
2022-12-24T20:19:02.517Z,70.88
2022-12-24T20:21:47.380Z,71.31
2022-12-24T20:24:32.213Z,71.53
2022-12-24T20:27:16.950Z,71.43
2022-12-24T20:30:01.567Z,71.88
2022-12-24T20:32:46.423Z,71.82
2022-12-24T20:35:31.066Z,70.98
2022-12-24T20:38:15.779Z,70.56
2022-12-24T20:41:00.373Z,69.72
2022-12-24T20:43:48.219Z,70.76
2022-12-24T20:46:33.676Z,69.69
2022-12-24T20:49:18.715Z,71.96
2022-12-24T20:52:03.624Z,84.81
2022-12-24T20:54:48.414Z,76.04
2022-12-24T20:57:36.271Z,70.17
2022-12-24T21:00:21.545Z,61.33
2022-12-24T21:03:06.366Z,64.29
2022-12-24T21:05:51.049Z,63.19
2022-12-24T21:08:35.708Z,64.33
2022-12-24T21:11:20.694Z,65.86
2022-12-24T21:14:05.443Z,67.07
2022-12-24T21:16:50.400Z,68.77
2022-12-24T21:19:35.580Z,76.59
2022-12-24T21:22:20.340Z,70.27
2022-12-24T21:25:05.046Z,73.44
2022-12-24T21:27:49.827Z,76.85
2022-12-24T21:30:34.612Z,76.44
2022-12-24T21:33:19.262Z,75.60
2022-12-24T21:36:04.117Z,65.19
2022-12-24T21:38:48.789Z,64.79
2022-12-24T21:41:33.455Z,70.94
2022-12-24T21:44:18.248Z,69.20
2022-12-24T21:47:03.079Z,68.44
2022-12-24T21:49:47.820Z,57.80
2022-12-24T21:52:32.600Z,58.54
2022-12-24T21:55:17.431Z,58.70
2022-12-24T21:58:02.300Z,67.12
2022-12-24T22:00:47.004Z,59.70
2022-12-24T22:03:31.713Z,58.14
2022-12-24T22:06:17.065Z,59.69
2022-12-24T22:09:01.725Z,60.85
2022-12-24T22:11:53.566Z,62.04
2022-12-24T22:14:39.429Z,63.82
2022-12-24T22:17:25.837Z,66.57
2022-12-24T22:20:10.893Z,64.36
2022-12-24T22:22:55.702Z,66.01
2022-12-24T22:25:40.163Z,66.56
2022-12-24T22:28:25.001Z,66.51
2022-12-24T22:31:09.700Z,66.47
2022-12-24T22:33:54.598Z,67.02
2022-12-24T22:36:39.312Z,68.24
2022-12-24T22:39:24.254Z,69.23
2022-12-24T22:42:09.027Z,84.35
2022-12-24T22:44:53.884Z,70.90
2022-12-24T22:47:38.764Z,69.89
2022-12-24T22:50:23.450Z,69.95
2022-12-24T22:53:08.151Z,68.71
2022-12-24T22:55:52.745Z,67.79
2022-12-24T22:58:37.375Z,69.02
2022-12-24T23:01:21.989Z,68.72
2022-12-24T23:04:06.888Z,69.95
2022-12-24T23:06:52.197Z,70.41
2022-12-24T23:09:36.895Z,70.93
2022-12-24T23:12:21.786Z,71.34
2022-12-24T23:15:06.455Z,71.40
2022-12-24T23:17:51.363Z,71.33
2022-12-24T23:20:36.064Z,70.66
2022-12-24T23:23:20.873Z,70.40
2022-12-24T23:26:05.577Z,72.22
2022-12-24T23:28:50.329Z,89.08
2022-12-24T23:31:35.263Z,76.24
2022-12-24T23:34:20.397Z,81.94
2022-12-24T23:37:05.160Z,72.83
2022-12-24T23:39:49.962Z,72.20
2022-12-24T23:42:34.767Z,64.85
2022-12-24T23:45:19.472Z,72.34
2022-12-24T23:48:04.209Z,81.53
2022-12-24T23:50:48.896Z,79.36
2022-12-24T23:53:33.627Z,67.31
2022-12-24T23:56:18.288Z,61.67
2022-12-24T23:59:03.101Z,64.59
